sensor_id;sensor_type;location;lat;lon;timestamp;pressure;altitude;pressure_sealevel;temperature;humidity
42591;BME280;28218;53.342;-6.216;2024-01-27T00:00:59;102741.94;;;8.00;100.00
42591;BME280;28218;53.342;-6.216;2024-01-27T00:03:27;102751.50;;;8.01;100.00
42591;BME280;28218;53.342;-6.216;2024-01-27T00:05:57;102752.34;;;8.02;100.00
42591;BME280;28218;53.342;-6.216;2024-01-27T00:08:25;102751.38;;;8.03;100.00
42591;BME280;28218;53.342;-6.216;2024-01-27T00:10:54;102750.56;;;8.02;100.00
42591;BME280;28218;53.342;-6.216;2024-01-27T00:13:22;102742.56;;;8.04;100.00
42591;BME280;28218;53.342;-6.216;2024-01-27T00:15:51;102754.78;;;8.05;100.00
42591;BME280;28218;53.342;-6.216;2024-01-27T00:18:21;102749.53;;;8.05;100.00
42591;BME280;28218;53.342;-6.216;2024-01-27T00:20:50;102748.66;;;8.04;100.00
42591;BME280;28218;53.342;-6.216;2024-01-27T00:23:20;102733.78;;;8.05;100.00
42591;BME280;28218;53.342;-6.216;2024-01-27T00:25:48;102738.91;;;8.06;100.00
42591;BME280;28218;53.342;-6.216;2024-01-27T00:28:16;102731.75;;;8.08;100.00
42591;BME280;28218;53.342;-6.216;2024-01-27T00:30:44;102730.84;;;8.09;100.00
42591;BME280;28218;53.342;-6.216;2024-01-27T00:33:12;102717.59;;;8.11;100.00
42591;BME280;28218;53.342;-6.216;2024-01-27T00:35:41;102717.59;;;8.11;100.00
42591;BME280;28218;53.342;-6.216;2024-01-27T00:38:10;102723.50;;;8.14;100.00
42591;BME280;28218;53.342;-6.216;2024-01-27T00:40:40;102713.81;;;8.15;100.00
42591;BME280;28218;53.342;-6.216;2024-01-27T00:43:08;102707.63;;;8.16;100.00
42591;BME280;28218;53.342;-6.216;2024-01-27T00:45:36;102706.78;;;8.15;100.00
42591;BME280;28218;53.342;-6.216;2024-01-27T00:48:05;102712.88;;;8.16;100.00
42591;BME280;28218;53.342;-6.216;2024-01-27T00:50:34;102708.34;;;8.18;100.00
42591;BME280;28218;53.342;-6.216;2024-01-27T00:53:02;102702.91;;;8.21;100.00
42591;BME280;28218;53.342;-6.216;2024-01-27T00:55:31;102700.28;;;8.21;100.00
42591;BME280;28218;53.342;-6.216;2024-01-27T00:58:00;102690.59;;;8.22;100.00
42591;BME280;28218;53.342;-6.216;2024-01-27T01:00:28;102692.91;;;8.26;100.00
42591;BME280;28218;53.342;-6.216;2024-01-27T01:02:57;102693.66;;;8.28;100.00
42591;BME280;28218;53.342;-6.216;2024-01-27T01:05:25;102692.81;;;8.28;100.00
42591;BME280;28218;53.342;-6.216;2024-01-27T01:07:53;102688.63;;;8.25;100.00
42591;BME280;28218;53.342;-6.216;2024-01-27T01:10:21;102691.03;;;8.28;100.00
42591;BME280;28218;53.342;-6.216;2024-01-27T01:12:50;102688.41;;;8.28;100.00
42591;BME280;28218;53.342;-6.216;2024-01-27T01:15:20;102672.66;;;8.28;100.00
42591;BME280;28218;53.342;-6.216;2024-01-27T01:17:48;102680.53;;;8.28;100.00
42591;BME280;28218;53.342;-6.216;2024-01-27T01:20:16;102693.66;;;8.28;100.00
42591;BME280;28218;53.342;-6.216;2024-01-27T01:22:45;102685.88;;;8.27;100.00
42591;BME280;28218;53.342;-6.216;2024-01-27T01:25:13;102687.66;;;8.26;100.00
42591;BME280;28218;53.342;-6.216;2024-01-27T01:27:41;102678.84;;;8.27;100.00
42591;BME280;28218;53.342;-6.216;2024-01-27T01:30:10;102678.63;;;8.30;100.00
42591;BME280;28218;53.342;-6.216;2024-01-27T01:32:40;102684.72;;;8.31;100.00
42591;BME280;28218;53.342;-6.216;2024-01-27T01:35:09;102669.81;;;8.31;100.00
42591;BME280;28218;53.342;-6.216;2024-01-27T01:37:38;102671.59;;;8.31;100.00
42591;BME280;28218;53.342;-6.216;2024-01-27T01:40:07;102660.13;;;8.32;100.00
42591;BME280;28218;53.342;-6.216;2024-01-27T01:42:35;102656.66;;;8.31;100.00
42591;BME280;28218;53.342;-6.216;2024-01-27T01:45:04;102658.13;;;8.35;100.00
42591;BME280;28218;53.342;-6.216;2024-01-27T01:47:32;102657.31;;;8.35;100.00
42591;BME280;28218;53.342;-6.216;2024-01-27T01:50:05;102664.34;;;8.34;100.00
42591;BME280;28218;53.342;-6.216;2024-01-27T01:52:34;102645.00;;;8.35;100.00
42591;BME280;28218;53.342;-6.216;2024-01-27T01:55:02;102643.34;;;8.34;100.00
42591;BME280;28218;53.342;-6.216;2024-01-27T01:57:33;102655.44;;;8.37;100.00
42591;BME280;28218;53.342;-6.216;2024-01-27T02:00:01;102651.00;;;8.37;100.00
42591;BME280;28218;53.342;-6.216;2024-01-27T02:02:30;102658.97;;;8.36;100.00
42591;BME280;28218;53.342;-6.216;2024-01-27T02:04:58;102663.22;;;8.38;100.00
42591;BME280;28218;53.342;-6.216;2024-01-27T02:07:28;102658.97;;;8.36;100.00
42591;BME280;28218;53.342;-6.216;2024-01-27T02:09:56;102662.38;;;8.38;100.00
42591;BME280;28218;53.342;-6.216;2024-01-27T02:12:25;102665.72;;;8.40;100.00
42591;BME280;28218;53.342;-6.216;2024-01-27T02:14:53;102654.38;;;8.39;100.00
42591;BME280;28218;53.342;-6.216;2024-01-27T02:17:21;102667.63;;;8.38;100.00
42591;BME280;28218;53.342;-6.216;2024-01-27T02:19:50;102668.47;;;8.38;100.00
42591;BME280;28218;53.342;-6.216;2024-01-27T02:22:18;102663.22;;;8.38;100.00
42591;BME280;28218;53.342;-6.216;2024-01-27T02:24:48;102666.56;;;8.40;100.00
42591;BME280;28218;53.342;-6.216;2024-01-27T02:27:16;102669.09;;;8.42;100.00
42591;BME280;28218;53.342;-6.216;2024-01-27T02:29:47;102677.91;;;8.41;100.00
42591;BME280;28218;53.342;-6.216;2024-01-27T02:32:15;102671.72;;;8.42;100.00
42591;BME280;28218;53.342;-6.216;2024-01-27T02:34:43;102679.28;;;8.47;100.00
42591;BME280;28218;53.342;-6.216;2024-01-27T02:37:12;102672.34;;;8.45;100.00
42591;BME280;28218;53.342;-6.216;2024-01-27T02:39:40;102689.06;;;8.44;100.00
42591;BME280;28218;53.342;-6.216;2024-01-27T02:42:10;102673.09;;;8.48;100.00
42591;BME280;28218;53.342;-6.216;2024-01-27T02:44:38;102674.97;;;8.45;100.00
42591;BME280;28218;53.342;-6.216;2024-01-27T02:47:06;102675.59;;;8.49;100.00
42591;BME280;28218;53.342;-6.216;2024-01-27T02:49:34;102659.97;;;8.48;100.00
42591;BME280;28218;53.342;-6.216;2024-01-27T02:52:03;102665.94;;;8.50;100.00
42591;BME280;28218;53.342;-6.216;2024-01-27T02:54:31;102664.25;;;8.49;100.00
42591;BME280;28218;53.342;-6.216;2024-01-27T02:57:00;102656.38;;;8.49;100.00
42591;BME280;28218;53.342;-6.216;2024-01-27T02:59:29;102655.53;;;8.48;100.00
42591;BME280;28218;53.342;-6.216;2024-01-27T03:01:58;102642.50;;;8.47;100.00
42591;BME280;28218;53.342;-6.216;2024-01-27T03:04:26;102656.69;;;8.44;100.00
42591;BME280;28218;53.342;-6.216;2024-01-27T03:06:54;102649.66;;;8.44;100.00
42591;BME280;28218;53.342;-6.216;2024-01-27T03:09:22;102654.78;;;8.46;100.00
42591;BME280;28218;53.342;-6.216;2024-01-27T03:11:51;102646.19;;;8.44;100.00
42591;BME280;28218;53.342;-6.216;2024-01-27T03:14:19;102643.44;;;8.45;100.00
42591;BME280;28218;53.342;-6.216;2024-01-27T03:16:49;102653.13;;;8.45;100.00
42591;BME280;28218;53.342;-6.216;2024-01-27T03:19:17;102648.69;;;8.45;100.00
42591;BME280;28218;53.342;-6.216;2024-01-27T03:21:46;102642.94;;;8.40;100.00
42591;BME280;28218;53.342;-6.216;2024-01-27T03:24:14;102640.19;;;8.42;100.00
42591;BME280;28218;53.342;-6.216;2024-01-27T03:26:42;102636.84;;;8.40;100.00
42591;BME280;28218;53.342;-6.216;2024-01-27T03:29:10;102643.69;;;8.42;100.00
42591;BME280;28218;53.342;-6.216;2024-01-27T03:31:39;102641.13;;;8.41;100.00
42591;BME280;28218;53.342;-6.216;2024-01-27T03:34:08;102641.06;;;8.42;100.00
42591;BME280;28218;53.342;-6.216;2024-01-27T03:36:37;102641.06;;;8.42;100.00
42591;BME280;28218;53.342;-6.216;2024-01-27T03:39:05;102634.00;;;8.43;100.00
42591;BME280;28218;53.342;-6.216;2024-01-27T03:41:35;102638.31;;;8.44;100.00
42591;BME280;28218;53.342;-6.216;2024-01-27T03:44:03;102632.41;;;8.40;100.00
42591;BME280;28218;53.342;-6.216;2024-01-27T03:46:31;102625.38;;;8.41;100.00
42591;BME280;28218;53.342;-6.216;2024-01-27T03:48:59;102632.53;;;8.39;100.00
42591;BME280;28218;53.342;-6.216;2024-01-27T03:51:30;102631.78;;;8.37;100.00
42591;BME280;28218;53.342;-6.216;2024-01-27T03:53:58;102641.38;;;8.38;100.00
42591;BME280;28218;53.342;-6.216;2024-01-27T03:56:26;102630.09;;;8.36;100.00
42591;BME280;28218;53.342;-6.216;2024-01-27T03:58:55;102641.38;;;8.38;100.00
42591;BME280;28218;53.342;-6.216;2024-01-27T04:01:23;102628.13;;;8.39;100.00
42591;BME280;28218;53.342;-6.216;2024-01-27T04:03:52;102627.38;;;8.37;100.00
42591;BME280;28218;53.342;-6.216;2024-01-27T04:06:20;102630.88;;;8.38;100.00
42591;BME280;28218;53.342;-6.216;2024-01-27T04:08:50;102615.00;;;8.39;100.00
42591;BME280;28218;53.342;-6.216;2024-01-27T04:11:21;102621.06;;;8.40;100.00
42591;BME280;28218;53.342;-6.216;2024-01-27T04:13:50;102611.41;;;8.40;100.00
42591;BME280;28218;53.342;-6.216;2024-01-27T04:16:18;102615.72;;;8.41;100.00
42591;BME280;28218;53.342;-6.216;2024-01-27T04:18:47;102603.53;;;8.40;100.00
42591;BME280;28218;53.342;-6.216;2024-01-27T04:21:15;102604.16;;;8.44;100.00
42591;BME280;28218;53.342;-6.216;2024-01-27T04:23:43;102614.78;;;8.42;100.00
42591;BME280;28218;53.342;-6.216;2024-01-27T04:26:13;102611.09;;;8.45;100.00
42591;BME280;28218;53.342;-6.216;2024-01-27T04:28:41;102600.69;;;8.43;100.00
42591;BME280;28218;53.342;-6.216;2024-01-27T04:31:10;102612.03;;;8.44;100.00
42591;BME280;28218;53.342;-6.216;2024-01-27T04:33:38;102607.63;;;8.44;100.00
42591;BME280;28218;53.342;-6.216;2024-01-27T04:36:07;102606.47;;;8.49;100.00
42591;BME280;28218;53.342;-6.216;2024-01-27T04:38:37;102604.78;;;8.48;100.00
42591;BME280;28218;53.342;-6.216;2024-01-27T04:41:05;102601.09;;;8.50;100.00
42591;BME280;28218;53.342;-6.216;2024-01-27T04:43:35;102604.47;;;8.52;100.00
42591;BME280;28218;53.342;-6.216;2024-01-27T04:46:03;102601.00;;;8.52;100.00
42591;BME280;28218;53.342;-6.216;2024-01-27T04:48:31;102601.84;;;8.52;100.00
42591;BME280;28218;53.342;-6.216;2024-01-27T04:51:00;102606.84;;;8.55;100.00
42591;BME280;28218;53.342;-6.216;2024-01-27T04:53:28;102613.19;;;8.53;100.00
42591;BME280;28218;53.342;-6.216;2024-01-27T04:55:56;102612.34;;;8.52;100.00
42591;BME280;28218;53.342;-6.216;2024-01-27T04:58:24;102607.09;;;8.52;100.00
42591;BME280;28218;53.342;-6.216;2024-01-27T05:00:54;102604.13;;;8.57;100.00
42591;BME280;28218;53.342;-6.216;2024-01-27T05:03:22;102606.84;;;8.55;100.00
42591;BME280;28218;53.342;-6.216;2024-01-27T05:05:51;102605.06;;;8.56;100.00
42591;BME280;28218;53.342;-6.216;2024-01-27T05:08:19;102603.19;;;8.58;100.00
42591;BME280;28218;53.342;-6.216;2024-01-27T05:10:47;102612.75;;;8.59;100.00
42591;BME280;28218;53.342;-6.216;2024-01-27T05:13:15;102607.47;;;8.59;100.00
42591;BME280;28218;53.342;-6.216;2024-01-27T05:15:44;102604.97;;;8.57;100.00
42591;BME280;28218;53.342;-6.216;2024-01-27T05:18:14;102607.47;;;8.59;100.00
42591;BME280;28218;53.342;-6.216;2024-01-27T05:20:42;102606.66;;;8.58;100.00
42591;BME280;28218;53.342;-6.216;2024-01-27T05:23:11;102611.91;;;8.58;100.00
42591;BME280;28218;53.342;-6.216;2024-01-27T05:25:39;102605.81;;;8.58;100.00
42591;BME280;28218;53.342;-6.216;2024-01-27T05:28:07;102614.53;;;8.58;100.00
42591;BME280;28218;53.342;-6.216;2024-01-27T05:30:35;102611.56;;;8.63;100.00
42591;BME280;28218;53.342;-6.216;2024-01-27T05:33:04;102611.47;;;8.64;100.00
42591;BME280;28218;53.342;-6.216;2024-01-27T05:35:34;102615.88;;;8.64;100.00
42591;BME280;28218;53.342;-6.216;2024-01-27T05:38:02;102619.25;;;8.66;100.00
42591;BME280;28218;53.342;-6.216;2024-01-27T05:40:30;102613.13;;;8.65;100.00
42591;BME280;28218;53.342;-6.216;2024-01-27T05:42:58;102617.34;;;8.68;100.00
42591;BME280;28218;53.342;-6.216;2024-01-27T05:45:27;102617.00;;;8.73;100.00
42591;BME280;28218;53.342;-6.216;2024-01-27T05:47:56;102605.47;;;8.75;100.00
42591;BME280;28218;53.342;-6.216;2024-01-27T05:50:24;102602.81;;;8.75;100.00
42591;BME280;28218;53.342;-6.216;2024-01-27T05:52:54;102605.34;;;8.77;100.00
42591;BME280;28218;53.342;-6.216;2024-01-27T05:55:22;102609.50;;;8.79;100.00
42591;BME280;28218;53.342;-6.216;2024-01-27T05:57:50;102601.53;;;8.81;100.00
42591;BME280;28218;53.342;-6.216;2024-01-27T06:00:19;102601.53;;;8.81;100.00
42591;BME280;28218;53.342;-6.216;2024-01-27T06:02:47;102608.47;;;8.82;100.00
42591;BME280;28218;53.342;-6.216;2024-01-27T06:05:16;102597.97;;;8.82;100.00
42591;BME280;28218;53.342;-6.216;2024-01-27T06:07:44;102595.22;;;8.83;100.00
42591;BME280;28218;53.342;-6.216;2024-01-27T06:10:14;102599.75;;;8.81;100.00
42591;BME280;28218;53.342;-6.216;2024-01-27T06:12:44;102600.47;;;8.83;100.00
42591;BME280;28218;53.342;-6.216;2024-01-27T06:15:13;102586.59;;;8.81;100.00
42591;BME280;28218;53.342;-6.216;2024-01-27T06:17:43;102594.50;;;8.81;100.00
42591;BME280;28218;53.342;-6.216;2024-01-27T06:20:11;102591.88;;;8.81;100.00
42591;BME280;28218;53.342;-6.216;2024-01-27T06:22:40;102597.13;;;8.81;100.00
42591;BME280;28218;53.342;-6.216;2024-01-27T06:25:08;102597.22;;;8.80;100.00
42591;BME280;28218;53.342;-6.216;2024-01-27T06:27:38;102589.22;;;8.81;100.00
42591;BME280;28218;53.342;-6.216;2024-01-27T06:30:09;102592.81;;;8.80;100.00
42591;BME280;28218;53.342;-6.216;2024-01-27T06:32:37;102594.59;;;8.80;100.00
42591;BME280;28218;53.342;-6.216;2024-01-27T06:35:06;102577.25;;;8.77;100.00
42591;BME280;28218;53.342;-6.216;2024-01-27T06:37:35;102572.72;;;8.79;100.00
42591;BME280;28218;53.342;-6.216;2024-01-27T06:40:05;102570.22;;;8.78;100.00
42591;BME280;28218;53.342;-6.216;2024-01-27T06:42:34;102566.63;;;8.79;100.00
42591;BME280;28218;53.342;-6.216;2024-01-27T06:45:05;102577.75;;;8.82;100.00
42591;BME280;28218;53.342;-6.216;2024-01-27T06:47:33;102572.72;;;8.79;100.00
42591;BME280;28218;53.342;-6.216;2024-01-27T06:50:02;102575.34;;;8.79;100.00
42591;BME280;28218;53.342;-6.216;2024-01-27T06:52:30;102581.34;;;8.81;100.00
42591;BME280;28218;53.342;-6.216;2024-01-27T06:54:58;102577.06;;;8.80;100.00
42591;BME280;28218;53.342;-6.216;2024-01-27T06:57:26;102575.25;;;8.81;100.00
42591;BME280;28218;53.342;-6.216;2024-01-27T06:59:55;102582.91;;;8.84;100.00
42591;BME280;28218;53.342;-6.216;2024-01-27T07:02:25;102579.44;;;8.83;100.00
42591;BME280;28218;53.342;-6.216;2024-01-27T07:04:54;102573.47;;;8.81;100.00
42591;BME280;28218;53.342;-6.216;2024-01-27T07:07:25;102580.28;;;8.84;100.00
42591;BME280;28218;53.342;-6.216;2024-01-27T07:09:55;102577.75;;;8.82;100.00
42591;BME280;28218;53.342;-6.216;2024-01-27T07:12:23;102583.13;;;8.81;100.00
42591;BME280;28218;53.342;-6.216;2024-01-27T07:14:52;102576.31;;;8.78;100.00
42591;BME280;28218;53.342;-6.216;2024-01-27T07:17:25;102565.06;;;8.76;100.00
42591;BME280;28218;53.342;-6.216;2024-01-27T07:19:53;102573.91;;;8.75;100.00
42591;BME280;28218;53.342;-6.216;2024-01-27T07:22:22;102567.78;;;8.75;100.00
42591;BME280;28218;53.342;-6.216;2024-01-27T07:24:51;102576.00;;;8.70;100.00
42591;BME280;28218;53.342;-6.216;2024-01-27T07:27:19;102562.03;;;8.69;100.00
42591;BME280;28218;53.342;-6.216;2024-01-27T07:29:47;102562.88;;;8.70;100.00
42591;BME280;28218;53.342;-6.216;2024-01-27T07:32:16;102579.50;;;8.70;100.00
42591;BME280;28218;53.342;-6.216;2024-01-27T07:34:45;102576.00;;;8.70;100.00
42591;BME280;28218;53.342;-6.216;2024-01-27T07:37:14;102570.66;;;8.72;100.00
42591;BME280;28218;53.342;-6.216;2024-01-27T07:39:42;102566.44;;;8.69;100.00
42591;BME280;28218;53.342;-6.216;2024-01-27T07:42:10;102562.88;;;8.70;100.00
42591;BME280;28218;53.342;-6.216;2024-01-27T07:44:39;102566.25;;;8.72;100.00
42591;BME280;28218;53.342;-6.216;2024-01-27T07:47:07;102576.00;;;8.70;100.00
42591;BME280;28218;53.342;-6.216;2024-01-27T07:49:36;102557.53;;;8.72;100.00
42591;BME280;28218;53.342;-6.216;2024-01-27T07:52:06;102563.72;;;8.70;100.00
42591;BME280;28218;53.342;-6.216;2024-01-27T07:54:34;102558.03;;;8.77;100.00
42591;BME280;28218;53.342;-6.216;2024-01-27T07:57:06;102551.81;;;8.78;100.00
42591;BME280;28218;53.342;-6.216;2024-01-27T07:59:34;102556.94;;;8.79;100.00
42591;BME280;28218;53.342;-6.216;2024-01-27T08:02:02;102564.75;;;8.81;100.00
42591;BME280;28218;53.342;-6.216;2024-01-27T08:04:31;102559.25;;;8.84;100.00
42591;BME280;28218;53.342;-6.216;2024-01-27T08:06:59;102555.56;;;8.86;100.00
42591;BME280;28218;53.342;-6.216;2024-01-27T08:09:34;102558.06;;;8.88;100.00
42591;BME280;28218;53.342;-6.216;2024-01-27T08:12:03;102546.94;;;8.84;100.00
42591;BME280;28218;53.342;-6.216;2024-01-27T08:14:31;102531.06;;;8.86;100.00
42591;BME280;28218;53.342;-6.216;2024-01-27T08:17:00;102542.31;;;8.88;100.00
42591;BME280;28218;53.342;-6.216;2024-01-27T08:19:30;102536.19;;;8.87;100.00
42591;BME280;28218;53.342;-6.216;2024-01-27T08:21:58;102543.97;;;8.89;100.00
42591;BME280;28218;53.342;-6.216;2024-01-27T08:24:27;102538.84;;;8.87;100.00
42591;BME280;28218;53.342;-6.216;2024-01-27T08:26:57;102532.53;;;8.90;100.00
42591;BME280;28218;53.342;-6.216;2024-01-27T08:29:27;102535.25;;;8.88;100.00
42591;BME280;28218;53.342;-6.216;2024-01-27T08:31:55;102530.00;;;8.88;100.00
42591;BME280;28218;53.342;-6.216;2024-01-27T08:34:24;102537.53;;;8.93;100.00
42591;BME280;28218;53.342;-6.216;2024-01-27T08:36:52;102519.88;;;8.95;100.00
42591;BME280;28218;53.342;-6.216;2024-01-27T08:39:21;102513.53;;;8.98;100.00
42591;BME280;28218;53.342;-6.216;2024-01-27T08:41:49;102518.69;;;8.99;100.00
42591;BME280;28218;53.342;-6.216;2024-01-27T08:44:18;102512.56;;;8.99;100.00
42591;BME280;28218;53.342;-6.216;2024-01-27T08:46:47;102503.63;;;9.01;100.00
42591;BME280;28218;53.342;-6.216;2024-01-27T08:49:15;102507.09;;;9.02;100.00
42591;BME280;28218;53.342;-6.216;2024-01-27T08:51:44;102494.44;;;9.07;100.00
42591;BME280;28218;53.342;-6.216;2024-01-27T08:54:12;102504.97;;;9.07;100.00
42591;BME280;28218;53.342;-6.216;2024-01-27T08:56:40;102498.75;;;9.08;100.00
42591;BME280;28218;53.342;-6.216;2024-01-27T08:59:09;102504.75;;;9.10;100.00
42591;BME280;28218;53.342;-6.216;2024-01-27T09:01:39;102505.59;;;9.10;100.00
42591;BME280;28218;53.342;-6.216;2024-01-27T09:04:07;102494.72;;;9.15;100.00
42591;BME280;28218;53.342;-6.216;2024-01-27T09:06:36;102465.91;;;9.13;100.00
42591;BME280;28218;53.342;-6.216;2024-01-27T09:09:04;102490.06;;;9.18;100.00
42591;BME280;28218;53.342;-6.216;2024-01-27T09:11:32;102479.44;;;9.20;100.00
42591;BME280;28218;53.342;-6.216;2024-01-27T09:14:01;102473.22;;;9.21;100.00
42591;BME280;28218;53.342;-6.216;2024-01-27T09:16:31;102483.38;;;9.26;100.00
42591;BME280;28218;53.342;-6.216;2024-01-27T09:19:01;102482.19;;;9.30;100.00
42591;BME280;28218;53.342;-6.216;2024-01-27T09:21:30;102475.03;;;9.32;100.00
42591;BME280;28218;53.342;-6.216;2024-01-27T09:24:00;102459.25;;;9.32;100.00
42591;BME280;28218;53.342;-6.216;2024-01-27T09:26:29;102454.56;;;9.35;100.00
42591;BME280;28218;53.342;-6.216;2024-01-27T09:28:57;102458.03;;;9.36;100.00
42591;BME280;28218;53.342;-6.216;2024-01-27T09:31:25;102454.34;;;9.38;100.00
42591;BME280;28218;53.342;-6.216;2024-01-27T09:33:55;102455.91;;;9.41;100.00
42591;BME280;28218;53.342;-6.216;2024-01-27T09:36:25;102454.69;;;9.45;100.00
42591;BME280;28218;53.342;-6.216;2024-01-27T09:38:53;102448.38;;;9.47;100.00
42591;BME280;28218;53.342;-6.216;2024-01-27T09:41:21;102443.59;;;9.53;100.00
42591;BME280;28218;53.342;-6.216;2024-01-27T09:43:50;102456.53;;;9.56;100.00
42591;BME280;28218;53.342;-6.216;2024-01-27T09:46:19;102468.72;;;9.57;100.00
42591;BME280;28218;53.342;-6.216;2024-01-27T09:48:48;102464.16;;;9.59;100.00
42591;BME280;28218;53.342;-6.216;2024-01-27T09:51:16;102471.84;;;9.62;100.00
42591;BME280;28218;53.342;-6.216;2024-01-27T09:53:46;102473.38;;;9.64;100.00
42591;BME280;28218;53.342;-6.216;2024-01-27T09:56:14;102484.63;;;9.66;100.00
42591;BME280;28218;53.342;-6.216;2024-01-27T09:58:45;102488.72;;;9.70;100.00
42591;BME280;28218;53.342;-6.216;2024-01-27T10:01:16;102495.50;;;9.73;100.00
42591;BME280;28218;53.342;-6.216;2024-01-27T10:03:46;102498.88;;;9.75;100.00
42591;BME280;28218;53.342;-6.216;2024-01-27T10:06:14;102503.88;;;9.78;100.00
42591;BME280;28218;53.342;-6.216;2024-01-27T10:08:52;102505.34;;;9.82;100.00
42591;BME280;28218;53.342;-6.216;2024-01-27T10:11:21;102513.97;;;9.84;100.00
42591;BME280;28218;53.342;-6.216;2024-01-27T10:13:54;102505.81;;;9.87;100.00
42591;BME280;28218;53.342;-6.216;2024-01-27T10:16:25;102505.59;;;9.90;100.00
42591;BME280;28218;53.342;-6.216;2024-01-27T10:19:00;102503.56;;;9.94;100.00
42591;BME280;28218;53.342;-6.216;2024-01-27T10:21:29;102505.09;;;9.96;100.00
42591;BME280;28218;53.342;-6.216;2024-01-27T10:23:59;102499.81;;;9.96;100.00
42591;BME280;28218;53.342;-6.216;2024-01-27T10:26:30;102520.53;;;10.01;100.00
42591;BME280;28218;53.342;-6.216;2024-01-27T10:29:00;102506.16;;;10.05;100.00
42591;BME280;28218;53.342;-6.216;2024-01-27T10:31:30;102496.38;;;10.07;100.00
42591;BME280;28218;53.342;-6.216;2024-01-27T10:33:58;102484.03;;;10.08;100.00
42591;BME280;28218;53.342;-6.216;2024-01-27T10:36:38;102504.84;;;10.11;100.00
42591;BME280;28218;53.342;-6.216;2024-01-27T10:39:19;102495.75;;;10.15;100.00
42591;BME280;28218;53.342;-6.216;2024-01-27T10:41:49;102495.75;;;10.15;100.00
42591;BME280;28218;53.342;-6.216;2024-01-27T10:44:19;102497.66;;;10.13;100.00
42591;BME280;28218;53.342;-6.216;2024-01-27T10:46:49;102499.22;;;10.15;100.00
42591;BME280;28218;53.342;-6.216;2024-01-27T10:49:18;102498.28;;;10.16;100.00
42591;BME280;28218;53.342;-6.216;2024-01-27T10:51:53;102506.28;;;10.15;100.00
42591;BME280;28218;53.342;-6.216;2024-01-27T10:54:25;102496.22;;;10.20;100.00
42591;BME280;28218;53.342;-6.216;2024-01-27T10:56:56;102498.59;;;10.23;100.00
42591;BME280;28218;53.342;-6.216;2024-01-27T10:59:26;102501.97;;;10.25;100.00
42591;BME280;28218;53.342;-6.216;2024-01-27T11:01:56;102505.34;;;10.27;100.00
42591;BME280;28218;53.342;-6.216;2024-01-27T11:04:25;102482.34;;;10.29;100.00
42591;BME280;28218;53.342;-6.216;2024-01-27T11:06:55;102468.19;;;10.30;100.00
42591;BME280;28218;53.342;-6.216;2024-01-27T11:09:26;102477.53;;;10.34;100.00
42591;BME280;28218;53.342;-6.216;2024-01-27T11:11:55;102471.31;;;10.35;100.00
42591;BME280;28218;53.342;-6.216;2024-01-27T11:14:24;102461.25;;;10.40;100.00
42591;BME280;28218;53.342;-6.216;2024-01-27T11:16:55;102468.41;;;10.38;100.00
42591;BME280;28218;53.342;-6.216;2024-01-27T11:19:23;102454.28;;;10.39;100.00
42591;BME280;28218;53.342;-6.216;2024-01-27T11:22:00;102460.13;;;10.43;100.00
42591;BME280;28218;53.342;-6.216;2024-01-27T11:24:30;102461.69;;;10.45;100.00
42591;BME280;28218;53.342;-6.216;2024-01-27T11:27:02;102451.88;;;10.47;100.00
42591;BME280;28218;53.342;-6.216;2024-01-27T11:29:31;102451.63;;;10.51;100.00
42591;BME280;28218;53.342;-6.216;2024-01-27T11:32:01;102453.28;;;10.52;100.00
42591;BME280;28218;53.342;-6.216;2024-01-27T11:34:41;102452.06;;;10.56;100.00
42591;BME280;28218;53.342;-6.216;2024-01-27T11:37:12;102459.84;;;10.57;100.00
42591;BME280;28218;53.342;-6.216;2024-01-27T11:39:42;102452.53;;;10.61;100.00
42591;BME280;28218;53.342;-6.216;2024-01-27T11:42:11;102458.78;;;10.60;100.00
42591;BME280;28218;53.342;-6.216;2024-01-27T11:44:41;102465.72;;;10.61;100.00
42591;BME280;28218;53.342;-6.216;2024-01-27T11:47:14;102460.44;;;10.61;100.00
42591;BME280;28218;53.342;-6.216;2024-01-27T11:49:43;102439.22;;;10.62;100.00
42591;BME280;28218;53.342;-6.216;2024-01-27T11:52:12;102431.31;;;10.62;100.00
42591;BME280;28218;53.342;-6.216;2024-01-27T11:54:43;102414.56;;;10.63;100.00
42591;BME280;28218;53.342;-6.216;2024-01-27T11:57:11;102417.06;;;10.65;100.00
42591;BME280;28218;53.342;-6.216;2024-01-27T11:59:40;102416.91;;;10.66;100.00
42591;BME280;28218;53.342;-6.216;2024-01-27T12:02:08;102410.44;;;10.70;100.00
42591;BME280;28218;53.342;-6.216;2024-01-27T12:04:36;102403.56;;;10.79;100.00
42591;BME280;28218;53.342;-6.216;2024-01-27T12:07:05;102412.06;;;10.83;100.00
42591;BME280;28218;53.342;-6.216;2024-01-27T12:09:35;102398.59;;;10.86;100.00
42591;BME280;28218;53.342;-6.216;2024-01-27T12:12:06;102389.72;;;10.87;100.00
42591;BME280;28218;53.342;-6.216;2024-01-27T12:14:39;102389.59;;;10.88;100.00
42591;BME280;28218;53.342;-6.216;2024-01-27T12:17:08;102392.47;;;10.85;100.00
42591;BME280;28218;53.342;-6.216;2024-01-27T12:19:37;102380.59;;;10.91;100.00
42591;BME280;28218;53.342;-6.216;2024-01-27T12:22:21;102393.66;;;10.92;100.00
42591;BME280;28218;53.342;-6.216;2024-01-27T12:24:49;102380.47;;;10.92;100.00
42591;BME280;28218;53.342;-6.216;2024-01-27T12:27:19;102388.38;;;10.92;100.00
42591;BME280;28218;53.342;-6.216;2024-01-27T12:29:48;102381.31;;;10.93;100.00
42591;BME280;28218;53.342;-6.216;2024-01-27T12:32:17;102364.38;;;10.95;100.00
42591;BME280;28218;53.342;-6.216;2024-01-27T12:34:45;102359.09;;;10.95;100.00
42591;BME280;28218;53.342;-6.216;2024-01-27T12:37:15;102359.91;;;10.96;100.00
42591;BME280;28218;53.342;-6.216;2024-01-27T12:39:44;102344.97;;;10.96;100.00
42591;BME280;28218;53.342;-6.216;2024-01-27T12:42:12;102338.00;;;10.95;100.00
42591;BME280;28218;53.342;-6.216;2024-01-27T12:44:42;102345.66;;;10.98;100.00
42591;BME280;28218;53.342;-6.216;2024-01-27T12:47:11;102350.69;;;11.02;100.00